Disclaimer

Please do not use the information listed here in-flight or in-navigation, as they are not provided to us by the airports but are provided by volunteers, so they might be outdated.

Search


Regions


Airport information page

Radio informations:
Tower (TWR) - 118.4 MHz
Ground (GND) - 121.7 MHz
DEP - 119.7 MHz
Clearance delivery - 121.925 MHz
Approach (APP) - 119.1 MHz

Airport informations:
Latitude: 33° 35' 09.39" N
Longitude: 130° 27' 02.47" E
Elevation: 32 feet - 10 meters
Operating hours: N/A
Operating agency: Military-civil joint use airport
Timezone: UTC+9
Fuel: Jet A, without icing inhibitor.

JP-4, Wide cut turbine fuel MIL Spec T-5624

100/130 octane gasoline, leaded, MIL-L-5572F (GREEN)

Runway information:
16/34 - 9186 x 197 feet< - >2800 x 60 meters

Recent METARs:
RJFF 210000Z VRB02KT CAVOK 10/04 Q1023 BECMG 15007KT RMK A3023
RJFF 210030Z 16004KT 110V190 CAVOK 11/04 Q1024 NOSIG RMK A3024
RJFF 210100Z 15005KT CAVOK 11/04 Q1024 NOSIG RMK A3024

Airport on the map: